sensor_id;sensor_type;location;lat;lon;timestamp;pressure;altitude;pressure_sealevel;temperature;humidity
71621;BME280;59471;42.254;23.102;2022-07-23T00:01:15;96158.56;;;20.94;50.01
71621;BME280;59471;42.254;23.102;2022-07-23T00:03:41;96159.69;;;20.98;49.28
71621;BME280;59471;42.254;23.102;2022-07-23T00:06:06;96161.72;;;21.20;49.56
71621;BME280;59471;42.254;23.102;2022-07-23T00:08:32;96164.91;;;21.34;49.20
71621;BME280;59471;42.254;23.102;2022-07-23T00:10:57;96161.00;;;21.36;49.06
71621;BME280;59471;42.254;23.102;2022-07-23T00:13:23;96162.41;;;21.27;49.25
71621;BME280;59471;42.254;23.102;2022-07-23T00:15:49;96166.53;;;21.46;48.94
71621;BME280;59471;42.254;23.102;2022-07-23T00:18:14;96159.59;;;21.45;48.77
71621;BME280;59471;42.254;23.102;2022-07-23T00:20:40;96161.19;;;21.46;48.76
71621;BME280;59471;42.254;23.102;2022-07-23T00:23:05;96165.91;;;21.16;49.48
71621;BME280;59471;42.254;23.102;2022-07-23T00:25:31;96162.63;;;21.37;49.08
71621;BME280;59471;42.254;23.102;2022-07-23T00:28:01;96155.94;;;21.23;49.40
71621;BME280;59471;42.254;23.102;2022-07-23T00:30:27;96158.47;;;21.29;49.34
71621;BME280;59471;42.254;23.102;2022-07-23T00:32:57;96157.41;;;21.30;49.26
71621;BME280;59471;42.254;23.102;2022-07-23T00:35:26;96153.09;;;21.01;49.92
71621;BME280;59471;42.254;23.102;2022-07-23T00:37:54;96154.19;;;21.28;49.47
71621;BME280;59471;42.254;23.102;2022-07-23T00:40:20;96161.63;;;21.15;50.05
71621;BME280;59471;42.254;23.102;2022-07-23T00:42:46;96148.63;;;21.18;49.38
71621;BME280;59471;42.254;23.102;2022-07-23T00:45:11;96147.53;;;21.31;49.08
71621;BME280;59471;42.254;23.102;2022-07-23T00:47:38;96157.72;;;21.34;48.59
71621;BME280;59471;42.254;23.102;2022-07-23T00:50:06;96157.88;;;21.39;48.33
71621;BME280;59471;42.254;23.102;2022-07-23T00:52:33;96157.56;;;21.52;47.76
71621;BME280;59471;42.254;23.102;2022-07-23T00:55:00;96158.00;;;21.61;47.31
71621;BME280;59471;42.254;23.102;2022-07-23T00:57:26;96162.66;;;21.14;48.65
71621;BME280;59471;42.254;23.102;2022-07-23T00:59:52;96155.16;;;21.51;47.97
71621;BME280;59471;42.254;23.102;2022-07-23T01:02:17;96160.63;;;21.44;48.04
71621;BME280;59471;42.254;23.102;2022-07-23T01:04:43;96158.84;;;21.50;48.53
71621;BME280;59471;42.254;23.102;2022-07-23T01:07:09;96160.13;;;21.19;49.06
71621;BME280;59471;42.254;23.102;2022-07-23T01:09:34;96168.38;;;21.34;49.80
71621;BME280;59471;42.254;23.102;2022-07-23T01:12:00;96168.78;;;21.38;49.61
71621;BME280;59471;42.254;23.102;2022-07-23T01:14:26;96170.41;;;20.75;51.19
71621;BME280;59471;42.254;23.102;2022-07-23T01:16:52;96164.69;;;20.83;50.66
71621;BME280;59471;42.254;23.102;2022-07-23T01:19:18;96167.88;;;21.09;50.29
71621;BME280;59471;42.254;23.102;2022-07-23T01:21:47;96174.78;;;20.69;50.88
71621;BME280;59471;42.254;23.102;2022-07-23T01:24:15;96163.91;;;20.47;52.11
71621;BME280;59471;42.254;23.102;2022-07-23T01:26:44;96162.28;;;20.46;52.17
71621;BME280;59471;42.254;23.102;2022-07-23T01:29:10;96161.81;;;20.26;52.60
71621;BME280;59471;42.254;23.102;2022-07-23T01:31:36;96164.22;;;20.16;52.71
71621;BME280;59471;42.254;23.102;2022-07-23T01:34:02;96164.00;;;20.05;52.86
71621;BME280;59471;42.254;23.102;2022-07-23T01:36:28;96156.72;;;20.12;53.07
71621;BME280;59471;42.254;23.102;2022-07-23T01:38:53;96164.81;;;20.18;52.67
71621;BME280;59471;42.254;23.102;2022-07-23T01:41:19;96165.06;;;20.28;52.61
71621;BME280;59471;42.254;23.102;2022-07-23T01:43:45;96165.28;;;20.14;52.93
71621;BME280;59471;42.254;23.102;2022-07-23T01:46:11;96164.34;;;20.21;52.63
71621;BME280;59471;42.254;23.102;2022-07-23T01:48:36;96160.41;;;20.11;53.04
71621;BME280;59471;42.254;23.102;2022-07-23T01:51:02;96159.91;;;19.91;53.56
71621;BME280;59471;42.254;23.102;2022-07-23T01:53:28;96161.53;;;19.92;53.41
71621;BME280;59471;42.254;23.102;2022-07-23T01:55:57;96164.09;;;20.10;52.98
71621;BME280;59471;42.254;23.102;2022-07-23T01:58:23;96154.38;;;20.04;53.48
71621;BME280;59471;42.254;23.102;2022-07-23T02:00:48;96162.28;;;19.69;54.50
71621;BME280;59471;42.254;23.102;2022-07-23T02:03:14;96164.00;;;19.45;54.63
71621;BME280;59471;42.254;23.102;2022-07-23T02:05:39;96171.06;;;19.51;54.59
71621;BME280;59471;42.254;23.102;2022-07-23T02:08:05;96174.31;;;19.53;54.68
71621;BME280;59471;42.254;23.102;2022-07-23T02:10:31;96171.50;;;19.36;54.70
71621;BME280;59471;42.254;23.102;2022-07-23T02:12:56;96167.59;;;19.39;55.10
71621;BME280;59471;42.254;23.102;2022-07-23T02:15:22;96171.06;;;19.51;54.44
71621;BME280;59471;42.254;23.102;2022-07-23T02:17:48;96174.88;;;19.43;55.13
71621;BME280;59471;42.254;23.102;2022-07-23T02:20:14;96180.28;;;19.37;54.61
71621;BME280;59471;42.254;23.102;2022-07-23T02:22:40;96174.59;;;19.33;55.07
71621;BME280;59471;42.254;23.102;2022-07-23T02:25:06;96178.22;;;19.39;55.00
71621;BME280;59471;42.254;23.102;2022-07-23T02:27:33;96175.66;;;19.14;55.19
71621;BME280;59471;42.254;23.102;2022-07-23T02:29:58;96183.06;;;19.42;54.70
71621;BME280;59471;42.254;23.102;2022-07-23T02:32:25;96180.47;;;19.05;55.66
71621;BME280;59471;42.254;23.102;2022-07-23T02:34:51;96182.22;;;19.11;55.30
71621;BME280;59471;42.254;23.102;2022-07-23T02:37:16;96182.22;;;19.11;55.41
71621;BME280;59471;42.254;23.102;2022-07-23T02:39:43;96181.63;;;18.91;56.28
71621;BME280;59471;42.254;23.102;2022-07-23T02:42:08;96186.50;;;18.94;55.68
71621;BME280;59471;42.254;23.102;2022-07-23T02:44:34;96183.09;;;18.87;56.20
71621;BME280;59471;42.254;23.102;2022-07-23T02:47:00;96192.94;;;19.05;55.90
71621;BME280;59471;42.254;23.102;2022-07-23T02:49:26;96192.13;;;19.04;55.58
71621;BME280;59471;42.254;23.102;2022-07-23T02:51:51;96196.66;;;18.97;55.80
71621;BME280;59471;42.254;23.102;2022-07-23T02:54:17;96203.97;;;19.02;55.34
71621;BME280;59471;42.254;23.102;2022-07-23T02:56:43;96202.03;;;18.47;57.16
71621;BME280;59471;42.254;23.102;2022-07-23T02:59:09;96204.28;;;18.68;56.68
71621;BME280;59471;42.254;23.102;2022-07-23T03:01:35;96212.47;;;18.92;55.90
71621;BME280;59471;42.254;23.102;2022-07-23T03:04:00;96212.16;;;19.00;55.77
71621;BME280;59471;42.254;23.102;2022-07-23T03:06:26;96217.34;;;18.95;55.83
71621;BME280;59471;42.254;23.102;2022-07-23T03:08:51;96214.25;;;18.98;56.16
71621;BME280;59471;42.254;23.102;2022-07-23T03:11:17;96215.09;;;18.73;56.12
71621;BME280;59471;42.254;23.102;2022-07-23T03:13:43;96213.78;;;18.58;57.19
71621;BME280;59471;42.254;23.102;2022-07-23T03:16:08;96215.22;;;18.79;56.45
71621;BME280;59471;42.254;23.102;2022-07-23T03:18:34;96213.25;;;18.24;58.15
71621;BME280;59471;42.254;23.102;2022-07-23T03:21:00;96222.25;;;18.23;58.46
71621;BME280;59471;42.254;23.102;2022-07-23T03:23:26;96222.78;;;18.32;58.08
71621;BME280;59471;42.254;23.102;2022-07-23T03:25:51;96219.63;;;18.66;57.02
71621;BME280;59471;42.254;23.102;2022-07-23T03:28:18;96225.03;;;18.78;56.74
71621;BME280;59471;42.254;23.102;2022-07-23T03:30:45;96221.38;;;18.79;56.40
71621;BME280;59471;42.254;23.102;2022-07-23T03:33:13;96221.06;;;18.62;56.50
71621;BME280;59471;42.254;23.102;2022-07-23T03:35:39;96226.88;;;18.52;56.97
71621;BME280;59471;42.254;23.102;2022-07-23T03:38:05;96224.03;;;18.54;57.34
71621;BME280;59471;42.254;23.102;2022-07-23T03:40:31;96222.19;;;18.29;58.11
71621;BME280;59471;42.254;23.102;2022-07-23T03:42:56;96227.47;;;18.55;57.19
71621;BME280;59471;42.254;23.102;2022-07-23T03:45:22;96223.16;;;18.60;57.54
71621;BME280;59471;42.254;23.102;2022-07-23T03:47:48;96230.38;;;18.71;57.00
71621;BME280;59471;42.254;23.102;2022-07-23T03:50:13;96234.19;;;18.82;56.59
71621;BME280;59471;42.254;23.102;2022-07-23T03:52:39;96232.25;;;18.46;57.73
71621;BME280;59471;42.254;23.102;2022-07-23T03:55:05;96239.38;;;18.70;57.31
71621;BME280;59471;42.254;23.102;2022-07-23T03:57:32;96233.59;;;18.80;56.91
71621;BME280;59471;42.254;23.102;2022-07-23T03:59:57;96243.13;;;18.38;58.19
71621;BME280;59471;42.254;23.102;2022-07-23T04:02:23;96234.56;;;18.61;60.26
71621;BME280;59471;42.254;23.102;2022-07-23T04:04:48;96239.94;;;18.97;56.93
71621;BME280;59471;42.254;23.102;2022-07-23T04:07:14;96245.22;;;19.04;56.70
71621;BME280;59471;42.254;23.102;2022-07-23T04:09:40;96243.78;;;18.58;58.18
71621;BME280;59471;42.254;23.102;2022-07-23T04:12:06;96248.91;;;18.53;58.68
71621;BME280;59471;42.254;23.102;2022-07-23T04:14:32;96242.53;;;18.86;58.06
71621;BME280;59471;42.254;23.102;2022-07-23T04:16:59;96249.25;;;19.07;58.62
71621;BME280;59471;42.254;23.102;2022-07-23T04:19:25;96254.41;;;19.02;57.65
71621;BME280;59471;42.254;23.102;2022-07-23T04:21:51;96249.00;;;18.90;58.40
71621;BME280;59471;42.254;23.102;2022-07-23T04:24:18;96258.78;;;19.14;57.37
71621;BME280;59471;42.254;23.102;2022-07-23T04:26:44;96253.59;;;19.19;56.39
71621;BME280;59471;42.254;23.102;2022-07-23T04:29:10;96257.44;;;19.42;57.11
71621;BME280;59471;42.254;23.102;2022-07-23T04:31:36;96268.94;;;19.73;56.50
71621;BME280;59471;42.254;23.102;2022-07-23T04:34:02;96262.81;;;19.54;56.65
71621;BME280;59471;42.254;23.102;2022-07-23T04:36:28;96260.66;;;18.89;60.44
71621;BME280;59471;42.254;23.102;2022-07-23T04:38:54;96264.81;;;19.03;58.58
71621;BME280;59471;42.254;23.102;2022-07-23T04:41:20;96267.59;;;19.63;56.80
71621;BME280;59471;42.254;23.102;2022-07-23T04:43:46;96263.47;;;19.49;57.84
71621;BME280;59471;42.254;23.102;2022-07-23T04:46:11;96258.34;;;19.36;57.99
71621;BME280;59471;42.254;23.102;2022-07-23T04:48:37;96264.97;;;19.94;55.28
71621;BME280;59471;42.254;23.102;2022-07-23T04:51:03;96264.81;;;20.60;52.53
71621;BME280;59471;42.254;23.102;2022-07-23T04:53:29;96260.84;;;20.51;52.54
71621;BME280;59471;42.254;23.102;2022-07-23T04:55:54;96261.22;;;20.13;55.76
71621;BME280;59471;42.254;23.102;2022-07-23T04:58:20;96259.44;;;20.37;53.10
71621;BME280;59471;42.254;23.102;2022-07-23T05:00:46;96262.28;;;20.24;54.07
71621;BME280;59471;42.254;23.102;2022-07-23T05:03:12;96256.41;;;20.45;53.88
71621;BME280;59471;42.254;23.102;2022-07-23T05:05:37;96263.38;;;20.46;54.56
71621;BME280;59471;42.254;23.102;2022-07-23T05:08:04;96267.72;;;20.29;54.70
71621;BME280;59471;42.254;23.102;2022-07-23T05:10:29;96271.03;;;20.54;55.72
71621;BME280;59471;42.254;23.102;2022-07-23T05:12:55;96262.38;;;20.59;54.65
71621;BME280;59471;42.254;23.102;2022-07-23T05:15:21;96264.13;;;20.77;54.02
71621;BME280;59471;42.254;23.102;2022-07-23T05:17:46;96268.19;;;21.03;52.59
71621;BME280;59471;42.254;23.102;2022-07-23T05:20:13;96277.31;;;21.19;53.64
71621;BME280;59471;42.254;23.102;2022-07-23T05:22:39;96278.91;;;21.43;53.53
71621;BME280;59471;42.254;23.102;2022-07-23T05:25:05;96278.88;;;21.95;50.17
71621;BME280;59471;42.254;23.102;2022-07-23T05:27:31;96280.66;;;21.78;51.01
71621;BME280;59471;42.254;23.102;2022-07-23T05:29:57;96274.84;;;21.81;50.64
71621;BME280;59471;42.254;23.102;2022-07-23T05:32:23;96280.59;;;22.02;50.08
71621;BME280;59471;42.254;23.102;2022-07-23T05:34:49;96276.38;;;22.06;49.92
71621;BME280;59471;42.254;23.102;2022-07-23T05:37:15;96281.06;;;21.70;50.59
71621;BME280;59471;42.254;23.102;2022-07-23T05:39:41;96284.19;;;21.95;50.83
71621;BME280;59471;42.254;23.102;2022-07-23T05:42:06;96284.00;;;22.14;50.10
71621;BME280;59471;42.254;23.102;2022-07-23T05:44:33;96276.09;;;22.19;50.54
71621;BME280;59471;42.254;23.102;2022-07-23T05:46:58;96280.91;;;22.17;51.80
71621;BME280;59471;42.254;23.102;2022-07-23T05:49:24;96278.25;;;22.51;48.85
71621;BME280;59471;42.254;23.102;2022-07-23T05:51:50;96277.63;;;22.60;50.34
71621;BME280;59471;42.254;23.102;2022-07-23T05:54:15;96279.38;;;22.88;49.11
71621;BME280;59471;42.254;23.102;2022-07-23T05:56:41;96279.94;;;22.90;48.30
71621;BME280;59471;42.254;23.102;2022-07-23T05:59:06;96284.78;;;23.27;46.71
71621;BME280;59471;42.254;23.102;2022-07-23T06:01:32;96274.31;;;23.26;46.60
71621;BME280;59471;42.254;23.102;2022-07-23T06:03:58;96270.91;;;23.30;46.92
71621;BME280;59471;42.254;23.102;2022-07-23T06:06:23;96275.03;;;23.38;46.00
71621;BME280;59471;42.254;23.102;2022-07-23T06:08:49;96273.47;;;23.42;45.49
71621;BME280;59471;42.254;23.102;2022-07-23T06:11:14;96265.13;;;23.60;45.52
71621;BME280;59471;42.254;23.102;2022-07-23T06:13:40;96269.97;;;23.64;46.29
71621;BME280;59471;42.254;23.102;2022-07-23T06:16:05;96265.91;;;24.05;44.69
71621;BME280;59471;42.254;23.102;2022-07-23T06:18:31;96263.81;;;24.07;43.61
71621;BME280;59471;42.254;23.102;2022-07-23T06:20:56;96265.16;;;23.82;44.46
71621;BME280;59471;42.254;23.102;2022-07-23T06:23:22;96267.06;;;24.14;43.01
71621;BME280;59471;42.254;23.102;2022-07-23T06:25:47;96263.47;;;24.31;41.61
71621;BME280;59471;42.254;23.102;2022-07-23T06:28:13;96259.91;;;24.20;42.54
71621;BME280;59471;42.254;23.102;2022-07-23T06:30:39;96257.09;;;24.32;40.71
71621;BME280;59471;42.254;23.102;2022-07-23T06:33:04;96253.00;;;24.51;40.16
71621;BME280;59471;42.254;23.102;2022-07-23T06:35:30;96248.22;;;24.58;40.03
71621;BME280;59471;42.254;23.102;2022-07-23T06:37:55;96253.22;;;24.82;40.38
71621;BME280;59471;42.254;23.102;2022-07-23T06:40:21;96250.03;;;24.90;42.85
71621;BME280;59471;42.254;23.102;2022-07-23T06:42:46;96255.19;;;24.96;42.64
71621;BME280;59471;42.254;23.102;2022-07-23T06:45:12;96258.28;;;25.15;41.54
71621;BME280;59471;42.254;23.102;2022-07-23T06:47:38;96256.19;;;25.28;41.50
71621;BME280;59471;42.254;23.102;2022-07-23T06:50:06;96260.13;;;25.67;39.39
71621;BME280;59471;42.254;23.102;2022-07-23T06:52:31;96256.19;;;25.91;38.50
71621;BME280;59471;42.254;23.102;2022-07-23T06:54:57;96259.41;;;25.87;39.41
71621;BME280;59471;42.254;23.102;2022-07-23T06:57:22;96257.56;;;26.03;40.29
71621;BME280;59471;42.254;23.102;2022-07-23T06:59:51;96249.41;;;25.78;39.37
71621;BME280;59471;42.254;23.102;2022-07-23T07:02:16;96249.44;;;25.73;39.86
71621;BME280;59471;42.254;23.102;2022-07-23T07:04:42;96245.22;;;25.92;40.15
71621;BME280;59471;42.254;23.102;2022-07-23T07:07:08;96245.31;;;26.48;38.34
71621;BME280;59471;42.254;23.102;2022-07-23T07:09:33;96247.19;;;26.53;38.34
71621;BME280;59471;42.254;23.102;2022-07-23T07:11:59;96239.91;;;26.53;39.53
71621;BME280;59471;42.254;23.102;2022-07-23T07:14:24;96244.22;;;26.65;39.43
71621;BME280;59471;42.254;23.102;2022-07-23T07:16:50;96240.19;;;26.77;39.50
71621;BME280;59471;42.254;23.102;2022-07-23T07:19:15;96227.00;;;26.86;38.91
71621;BME280;59471;42.254;23.102;2022-07-23T07:21:41;96230.69;;;27.31;37.00
71621;BME280;59471;42.254;23.102;2022-07-23T07:24:06;96216.59;;;27.55;35.29
71621;BME280;59471;42.254;23.102;2022-07-23T07:26:32;96215.53;;;27.50;34.69
71621;BME280;59471;42.254;23.102;2022-07-23T07:28:58;96215.59;;;27.40;33.21
71621;BME280;59471;42.254;23.102;2022-07-23T07:31:23;96213.94;;;27.49;33.84
71621;BME280;59471;42.254;23.102;2022-07-23T07:33:49;96212.38;;;27.33;35.41
71621;BME280;59471;42.254;23.102;2022-07-23T07:36:14;96208.13;;;27.07;35.76
71621;BME280;59471;42.254;23.102;2022-07-23T07:38:40;96212.09;;;27.35;35.13
71621;BME280;59471;42.254;23.102;2022-07-23T07:41:06;96201.59;;;27.43;33.26
71621;BME280;59471;42.254;23.102;2022-07-23T07:43:33;96205.13;;;27.34;33.69
71621;BME280;59471;42.254;23.102;2022-07-23T07:45:58;96203.06;;;27.70;31.72
71621;BME280;59471;42.254;23.102;2022-07-23T07:48:24;96194.75;;;27.61;31.90
71621;BME280;59471;42.254;23.102;2022-07-23T07:50:49;96196.28;;;27.28;31.81
71621;BME280;59471;42.254;23.102;2022-07-23T07:53:16;96200.78;;;27.43;30.54
71621;BME280;59471;42.254;23.102;2022-07-23T07:55:41;96198.16;;;27.87;32.29
71621;BME280;59471;42.254;23.102;2022-07-23T07:58:07;96191.94;;;28.31;31.77
71621;BME280;59471;42.254;23.102;2022-07-23T08:00:32;96181.53;;;28.54;31.23
71621;BME280;59471;42.254;23.102;2022-07-23T08:02:58;96181.56;;;28.49;31.52
71621;BME280;59471;42.254;23.102;2022-07-23T08:05:26;96191.31;;;28.45;32.52
71621;BME280;59471;42.254;23.102;2022-07-23T08:07:53;96180.28;;;28.41;32.21
71621;BME280;59471;42.254;23.102;2022-07-23T08:10:19;96187.34;;;28.32;33.13
71621;BME280;59471;42.254;23.102;2022-07-23T08:12:51;96181.84;;;28.13;31.99
71621;BME280;59471;42.254;23.102;2022-07-23T08:15:22;96171.56;;;28.15;32.73
71621;BME280;59471;42.254;23.102;2022-07-23T08:17:49;96178.84;;;28.78;30.64
71621;BME280;59471;42.254;23.102;2022-07-23T08:20:17;96175.66;;;29.00;31.21
71621;BME280;59471;42.254;23.102;2022-07-23T08:25:20;96176.69;;;29.52;28.92
71621;BME280;59471;42.254;23.102;2022-07-23T08:27:48;96176.09;;;29.55;28.73
71621;BME280;59471;42.254;23.102;2022-07-23T08:30:14;96176.41;;;29.72;28.53
71621;BME280;59471;42.254;23.102;2022-07-23T08:35:36;96167.94;;;29.98;28.12
71621;BME280;59471;42.254;23.102;2022-07-23T08:38:04;96164.34;;;29.89;29.63
71621;BME280;59471;42.254;23.102;2022-07-23T08:40:34;96167.16;;;29.97;31.82
71621;BME280;59471;42.254;23.102;2022-07-23T08:43:10;96164.91;;;30.05;30.09
71621;BME280;59471;42.254;23.102;2022-07-23T08:45:39;96163.06;;;29.62;29.57
71621;BME280;59471;42.254;23.102;2022-07-23T08:48:15;96161.31;;;29.28;29.88
71621;BME280;59471;42.254;23.102;2022-07-23T08:50:52;96155.56;;;29.97;30.83
71621;BME280;59471;42.254;23.102;2022-07-23T08:53:20;96157.59;;;30.05;29.53
71621;BME280;59471;42.254;23.102;2022-07-23T08:55:52;96156.44;;;29.92;30.66
71621;BME280;59471;42.254;23.102;2022-07-23T08:58:19;96152.63;;;30.12;30.43
71621;BME280;59471;42.254;23.102;2022-07-23T09:00:46;96146.75;;;30.43;30.72
71621;BME280;59471;42.254;23.102;2022-07-23T09:03:17;96141.72;;;30.83;30.20
71621;BME280;59471;42.254;23.102;2022-07-23T09:05:44;96145.56;;;30.77;29.23
71621;BME280;59471;42.254;23.102;2022-07-23T09:08:18;96142.31;;;30.14;29.92
71621;BME280;59471;42.254;23.102;2022-07-23T09:11:02;96137.19;;;30.92;28.53
71621;BME280;59471;42.254;23.102;2022-07-23T09:13:49;96145.22;;;30.83;28.89
71621;BME280;59471;42.254;23.102;2022-07-23T09:16:25;96140.41;;;31.08;30.04
71621;BME280;59471;42.254;23.102;2022-07-23T09:18:56;96141.59;;;31.57;27.17
71621;BME280;59471;42.254;23.102;2022-07-23T09:21:37;96140.94;;;31.74;27.26
71621;BME280;59471;42.254;23.102;2022-07-23T09:29:07;96139.91;;;31.97;26.92
71621;BME280;59471;42.254;23.102;2022-07-23T09:31:56;96135.78;;;31.86;27.75
71621;BME280;59471;42.254;23.102;2022-07-23T09:34:22;96130.47;;;32.17;27.03
71621;BME280;59471;42.254;23.102;2022-07-23T09:36:52;96118.41;;;31.87;27.12
71621;BME280;59471;42.254;23.102;2022-07-23T09:39:28;96118.44;;;32.32;27.49
71621;BME280;59471;42.254;23.102;2022-07-23T09:41:55;96122.16;;;32.14;27.56
71621;BME280;59471;42.254;23.102;2022-07-23T09:44:22;96118.63;;;32.36;28.38
71621;BME280;59471;42.254;23.102;2022-07-23T09:46:50;96108.56;;;32.59;28.41
71621;BME280;59471;42.254;23.102;2022-07-23T09:49:22;96100.50;;;32.76;26.69
71621;BME280;59471;42.254;23.102;2022-07-23T09:51:57;96098.06;;;33.06;24.79
71621;BME280;59471;42.254;23.102;2022-07-23T09:54:33;96095.28;;;32.88;26.70
71621;BME280;59471;42.254;23.102;2022-07-23T09:57:08;96097.50;;;33.26;26.26
71621;BME280;59471;42.254;23.102;2022-07-23T09:59:39;96106.41;;;33.35;28.69
71621;BME280;59471;42.254;23.102;2022-07-23T10:02:07;96096.56;;;33.39;26.49
71621;BME280;59471;42.254;23.102;2022-07-23T10:04:34;96093.41;;;33.55;26.84
71621;BME280;59471;42.254;23.102;2022-07-23T10:07:02;96093.41;;;33.81;26.74
71621;BME280;59471;42.254;23.102;2022-07-23T10:09:38;96089.09;;;33.71;26.22
71621;BME280;59471;42.254;23.102;2022-07-23T10:12:13;96077.09;;;33.89;25.84
71621;BME280;59471;42.254;23.102;2022-07-23T10:14:56;96080.44;;;34.12;27.60
71621;BME280;59471;42.254;23.102;2022-07-23T10:17:23;96071.78;;;34.10;26.36
71621;BME280;59471;42.254;23.102;2022-07-23T10:19:48;96072.28;;;34.21;25.05
71621;BME280;59471;42.254;23.102;2022-07-23T10:22:20;96070.97;;;34.27;25.34
71621;BME280;59471;42.254;23.102;2022-07-23T10:39:25;96053.75;;;34.06;25.48
71621;BME280;59471;42.254;23.102;2022-07-23T10:42:08;96052.03;;;34.40;25.04
71621;BME280;59471;42.254;23.102;2022-07-23T10:44:39;96046.59;;;34.40;23.82
71621;BME280;59471;42.254;23.102;2022-07-23T10:47:10;96044.66;;;34.49;26.45
71621;BME280;59471;42.254;23.102;2022-07-23T10:49:36;96049.03;;;34.79;25.79
71621;BME280;59471;42.254;23.102;2022-07-23T10:57:14;96021.03;;;35.29;23.47
71621;BME280;59471;42.254;23.102;2022-07-23T11:02:31;96015.91;;;35.49;22.49
71621;BME280;59471;42.254;23.102;2022-07-23T11:05:05;96001.84;;;35.47;21.33
71621;BME280;59471;42.254;23.102;2022-07-23T11:07:33;96001.38;;;35.45;21.70
71621;BME280;59471;42.254;23.102;2022-07-23T11:10:03;95996.25;;;35.64;23.12
71621;BME280;59471;42.254;23.102;2022-07-23T11:15:08;95988.56;;;35.66;24.00
71621;BME280;59471;42.254;23.102;2022-07-23T11:20:23;95990.94;;;36.01;21.00
71621;BME280;59471;42.254;23.102;2022-07-23T11:22:52;95975.34;;;35.89;19.44
71621;BME280;59471;42.254;23.102;2022-07-23T11:27:50;95985.22;;;35.82;20.38
71621;BME280;59471;42.254;23.102;2022-07-23T11:32:52;95969.50;;;35.66;21.14
71621;BME280;59471;42.254;23.102;2022-07-23T11:35:42;95969.34;;;35.96;22.16
71621;BME280;59471;42.254;23.102;2022-07-23T11:38:16;95963.47;;;36.18;20.27
71621;BME280;59471;42.254;23.102;2022-07-23T11:40:46;95962.91;;;36.25;19.76
71621;BME280;59471;42.254;23.102;2022-07-23T11:43:13;95959.66;;;36.56;18.35
71621;BME280;59471;42.254;23.102;2022-07-23T11:45:45;95953.03;;;36.70;18.69
71621;BME280;59471;42.254;23.102;2022-07-23T11:50:46;95952.81;;;36.38;16.90
71621;BME280;59471;42.254;23.102;2022-07-23T11:53:11;95946.81;;;36.45;17.53
71621;BME280;59471;42.254;23.102;2022-07-23T11:55:37;95935.66;;;36.37;18.19
71621;BME280;59471;42.254;23.102;2022-07-23T11:58:03;95932.63;;;36.51;18.08
71621;BME280;59471;42.254;23.102;2022-07-23T12:00:31;95931.53;;;36.93;16.08
71621;BME280;59471;42.254;23.102;2022-07-23T12:02:59;95933.94;;;36.82;19.28
71621;BME280;59471;42.254;23.102;2022-07-23T12:05:32;95927.28;;;37.07;18.19
71621;BME280;59471;42.254;23.102;2022-07-23T12:07:59;95932.75;;;37.07;18.48
71621;BME280;59471;42.254;23.102;2022-07-23T12:10:33;95930.53;;;37.25;16.13
71621;BME280;59471;42.254;23.102;2022-07-23T12:13:25;95921.09;;;37.23;17.28
71621;BME280;59471;42.254;23.102;2022-07-23T12:15:52;95927.22;;;37.32;16.11
71621;BME280;59471;42.254;23.102;2022-07-23T12:18:24;95930.03;;;37.07;15.22
71621;BME280;59471;42.254;23.102;2022-07-23T12:20:52;95929.31;;;37.10;15.89
71621;BME280;59471;42.254;23.102;2022-07-23T12:23:21;95926.97;;;37.09;17.16
71621;BME280;59471;42.254;23.102;2022-07-23T12:25:49;95922.09;;;37.02;17.97
71621;BME280;59471;42.254;23.102;2022-07-23T12:28:17;95912.84;;;37.35;16.80
71621;BME280;59471;42.254;23.102;2022-07-23T12:30:49;95917.84;;;37.45;17.91
71621;BME280;59471;42.254;23.102;2022-07-23T12:33:22;95907.81;;;37.49;16.37
71621;BME280;59471;42.254;23.102;2022-07-23T12:35:52;95913.69;;;37.23;16.63
71621;BME280;59471;42.254;23.102;2022-07-23T12:38:21;95907.28;;;37.03;16.21
71621;BME280;59471;42.254;23.102;2022-07-23T12:40:52;95894.56;;;36.95;15.86
71621;BME280;59471;42.254;23.102;2022-07-23T12:43:29;95902.09;;;36.98;15.06
71621;BME280;59471;42.254;23.102;2022-07-23T12:46:10;95896.22;;;36.72;18.06
71621;BME280;59471;42.254;23.102;2022-07-23T12:48:50;95891.09;;;37.10;15.55
71621;BME280;59471;42.254;23.102;2022-07-23T12:51:27;95891.78;;;37.07;14.88
71621;BME280;59471;42.254;23.102;2022-07-23T12:54:05;95887.34;;;36.75;15.97
71621;BME280;59471;42.254;23.102;2022-07-23T12:56:36;95885.72;;;36.86;16.27
71621;BME280;59471;42.254;23.102;2022-07-23T13:01:41;95885.06;;;37.17;15.65
71621;BME280;59471;42.254;23.102;2022-07-23T13:04:15;95888.91;;;37.44;14.46
71621;BME280;59471;42.254;23.102;2022-07-23T13:06:48;95885.34;;;37.28;14.87
71621;BME280;59471;42.254;23.102;2022-07-23T13:09:22;95882.72;;;36.91;16.58
71621;BME280;59471;42.254;23.102;2022-07-23T13:11:54;95884.25;;;37.17;15.58
71621;BME280;59471;42.254;23.102;2022-07-23T13:14:23;95879.28;;;37.06;15.81
71621;BME280;59471;42.254;23.102;2022-07-23T13:16:51;95877.88;;;36.84;16.67
71621;BME280;59471;42.254;23.102;2022-07-23T13:19:19;95886.28;;;37.20;16.19
71621;BME280;59471;42.254;23.102;2022-07-23T13:21:45;95886.75;;;37.22;15.77
71621;BME280;59471;42.254;23.102;2022-07-23T13:24:12;95877.06;;;36.84;15.76
71621;BME280;59471;42.254;23.102;2022-07-23T13:26:38;95878.00;;;36.76;16.08
71621;BME280;59471;42.254;23.102;2022-07-23T13:29:05;95871.94;;;37.23;15.47
71621;BME280;59471;42.254;23.102;2022-07-23T13:31:31;95872.63;;;37.20;15.81
71621;BME280;59471;42.254;23.102;2022-07-23T13:33:56;95869.66;;;37.25;15.42
71621;BME280;59471;42.254;23.102;2022-07-23T13:36:22;95864.97;;;36.97;15.72
71621;BME280;59471;42.254;23.102;2022-07-23T13:38:47;95866.28;;;37.16;14.30
71621;BME280;59471;42.254;23.102;2022-07-23T13:41:13;95870.56;;;37.29;14.79